Time;durP1;ratioP1;P1;durP2;ratioP2;P2;SDS_P1;SDS_P2;PMS_P1;PMS_P2;Temp;Humidity;BMP_temperature;BMP_pressure;BME280_temperature;BME280_humidity;BME280_pressure;Samples;Min_cycle;Max_cycle;Signal;HPM_P1;HPM_P2
2021/01/17 00:01:52;;;;;;;17.27;10.40;;;-1.60;99.90;;;-4.28;100.00;100685.19;4965679;28;100080;-63
2021/01/17 00:04:18;;;;;;;12.23;8.40;;;-1.70;99.90;;;-4.31;100.00;100687.91;4964994;28;101129;-63
2021/01/17 00:06:46;;;;;;;12.70;8.33;;;-1.70;99.90;;;-4.32;100.00;100686.19;4964821;28;100617;-63
2021/01/17 00:09:12;;;;;;;9.50;7.63;;;-1.60;99.90;;;-4.37;100.00;100681.16;4965330;28;100324;-63
2021/01/17 00:11:38;;;;;;;10.73;8.23;;;-1.70;99.90;;;-4.28;100.00;100678.19;4965025;28;100179;-62
2021/01/17 00:14:05;;;;;;;11.03;7.83;;;-1.60;99.90;;;-4.34;100.00;100670.59;4963902;28;101433;-62
2021/01/17 00:16:31;;;;;;;11.83;8.50;;;-1.70;99.90;;;-4.36;100.00;100665.44;4964583;28;101064;-62
2021/01/17 00:18:58;;;;;;;12.30;8.90;;;-1.70;99.90;;;-4.26;100.00;100667.69;4964827;28;100012;-63
2021/01/17 00:21:24;;;;;;;10.40;7.23;;;-1.60;99.90;;;-4.29;100.00;100667.81;4964983;28;100300;-63
2021/01/17 00:23:51;;;;;;;9.47;7.30;;;-1.60;99.90;;;-4.12;100.00;100681.13;4964197;28;101277;-63
2021/01/17 00:26:18;;;;;;;12.10;8.07;;;-1.60;99.90;;;-4.19;100.00;100672.63;4964882;28;100577;-63
2021/01/17 00:28:45;;;;;;;12.33;8.40;;;-1.60;99.90;;;-4.34;100.00;100678.44;4965895;28;100510;-64
2021/01/17 00:31:12;;;;;;;10.77;7.83;;;-1.60;99.90;;;-4.06;100.00;100681.72;4964834;28;99998;-63
2021/01/17 00:33:38;;;;;;;12.43;8.50;;;-1.50;99.90;;;-4.27;100.00;100677.28;4965067;28;100711;-63
2021/01/17 00:36:06;;;;;;;9.83;8.17;;;-1.60;99.90;;;-4.19;100.00;100677.84;4964677;28;100588;-63
2021/01/17 00:38:32;;;;;;;10.67;8.87;;;-1.50;99.90;;;-4.22;100.00;100675.38;4965391;28;100426;-62
2021/01/17 00:41:01;;;;;;;12.27;8.47;;;-1.50;99.90;;;-4.24;100.00;100679.81;4964361;28;100476;-63
2021/01/17 00:43:27;;;;;;;10.77;8.03;;;-1.40;99.90;;;-4.18;100.00;100678.72;4964638;28;100839;-62
2021/01/17 00:45:53;;;;;;;12.33;8.97;;;-1.60;99.90;;;-4.14;100.00;100670.72;4964803;28;100672;-63
2021/01/17 00:48:20;;;;;;;13.83;9.17;;;-1.50;99.90;;;-4.38;100.00;100675.06;4979476;27;100050;-63
2021/01/17 00:50:47;;;;;;;12.93;8.73;;;-1.50;99.90;;;-4.36;100.00;100670.66;4963660;28;100761;-62
2021/01/17 00:53:13;;;;;;;12.23;8.20;;;-1.50;99.90;;;-4.21;100.00;100663.16;4978877;28;103056;-62
2021/01/17 00:55:43;;;;;;;12.37;9.53;;;-1.50;99.90;;;-4.26;100.00;100659.88;4979560;28;100946;-63
2021/01/17 00:58:20;;;;;;;14.97;10.00;;;-1.60;99.90;;;-4.37;100.00;100668.94;4979056;28;100238;-63
2021/01/17 01:00:49;;;;;;;20.50;12.17;;;-1.60;99.90;;;-4.42;100.00;100663.03;4978878;28;100309;-62
2021/01/17 01:03:24;;;;;;;17.47;10.70;;;-1.60;99.90;;;-4.42;100.00;100652.56;4978973;28;103114;-62
2021/01/17 01:05:50;;;;;;;14.37;9.93;;;-1.60;99.90;;;-4.25;100.00;100653.72;4963945;27;100685;-64
2021/01/17 01:08:17;;;;;;;16.90;11.77;;;-1.50;99.90;;;-4.29;100.00;100655.59;4964116;28;100087;-63
2021/01/17 01:10:43;;;;;;;18.87;11.53;;;-1.50;99.90;;;-4.24;100.00;100647.59;4964526;28;100158;-63
2021/01/17 01:13:10;;;;;;;16.93;11.70;;;-1.70;99.90;;;-4.29;100.00;100644.28;4963557;28;101035;-63
2021/01/17 01:15:37;;;;;;;17.30;11.30;;;-1.60;99.90;;;-4.26;100.00;100637.19;4963511;28;100420;-63
2021/01/17 01:18:04;;;;;;;13.27;9.43;;;-1.60;99.90;;;-4.39;100.00;100634.19;4965343;28;100363;-62
2021/01/17 01:20:30;;;;;;;14.17;9.60;;;-1.60;99.90;;;-4.27;100.00;100632.88;4965218;28;100156;-62
2021/01/17 01:22:56;;;;;;;14.33;10.10;;;-1.70;99.90;;;-4.33;100.00;100629.66;4963619;28;100793;-62
2021/01/17 01:25:23;;;;;;;14.33;9.97;;;-1.80;99.90;;;-4.48;100.00;100629.31;4966384;28;101156;-62
2021/01/17 01:27:49;;;;;;;14.13;9.53;;;-1.70;99.90;;;-4.52;100.00;100624.22;4968164;27;100099;-62
2021/01/17 01:30:17;;;;;;;12.47;8.60;;;-1.70;99.90;;;-4.56;100.00;100607.81;4967541;27;100568;-62
2021/01/17 01:32:49;;;;;;;14.30;9.80;;;-1.70;99.90;;;-4.51;100.00;100618.97;4967989;28;100411;-62
2021/01/17 01:35:16;;;;;;;13.73;9.00;;;-1.80;99.90;;;-4.48;100.00;100613.63;4966945;28;100754;-63
2021/01/17 01:37:42;;;;;;;13.80;9.47;;;-1.70;99.90;;;-4.42;100.00;100612.53;4967557;28;99983;-63
2021/01/17 01:40:10;;;;;;;13.00;8.43;;;-1.90;99.90;;;-4.43;100.00;100613.44;4968573;28;100160;-62
2021/01/17 01:42:42;;;;;;;15.47;10.60;;;-1.90;99.90;;;-4.49;100.00;100614.53;4968051;28;101424;-62
2021/01/17 01:45:11;;;;;;;12.67;9.43;;;-1.70;99.90;;;-4.43;100.00;100610.84;4967792;28;101238;-61
2021/01/17 01:47:38;;;;;;;12.93;9.17;;;-1.80;99.90;;;-4.32;100.00;100610.44;4967990;28;100109;-62
2021/01/17 01:50:08;;;;;;;15.47;9.53;;;-2.10;99.90;;;-4.40;100.00;100608.97;4968052;28;100117;-62
2021/01/17 01:52:34;;;;;;;13.87;8.83;;;-1.80;99.90;;;-4.37;100.00;100606.25;4966945;28;101142;-62
2021/01/17 01:55:01;;;;;;;14.47;9.27;;;-1.70;99.90;;;-4.17;100.00;100604.63;4966732;28;101538;-63
2021/01/17 01:57:28;;;;;;;12.30;8.33;;;-1.00;99.90;;;-4.02;100.00;100612.75;4967670;28;100238;-61
2021/01/17 01:59:54;;;;;;;15.00;8.93;;;-0.20;99.90;;;-4.28;100.00;100599.81;4968123;28;100306;-62
2021/01/17 02:02:22;;;;;;;11.50;8.93;;;-1.70;99.90;;;-4.32;100.00;100595.63;4967449;28;100929;-62
2021/01/17 02:04:48;;;;;;;13.93;9.20;;;-1.70;99.90;;;-4.36;100.00;100588.81;4967452;28;101492;-63
2021/01/17 02:08:14;;;;;;;12.53;8.90;;;-0.80;99.90;;;-4.49;100.00;100596.25;4966977;28;100164;-62
2021/01/17 02:10:43;;;;;;;12.80;9.17;;;-1.70;99.90;;;-4.56;100.00;100593.91;4966379;28;100101;-62
2021/01/17 02:13:18;;;;;;;13.27;9.30;;;-1.70;99.90;;;-4.39;100.00;100591.53;4965983;28;101242;-62
2021/01/17 02:15:46;;;;;;;12.27;9.03;;;-1.70;99.90;;;-4.37;100.00;100592.34;4966301;28;100377;-62
2021/01/17 02:18:14;;;;;;;11.97;8.83;;;-1.40;99.90;;;-4.47;100.00;100593.59;4981754;28;100220;-62
2021/01/17 02:20:41;;;;;;;12.43;9.00;;;-1.70;99.90;;;-4.59;100.00;100592.28;4967426;28;100242;-62
2021/01/17 02:23:15;;;;;;;11.43;8.20;;;-1.70;99.90;;;-4.58;100.00;100595.75;4966532;28;101427;-63
2021/01/17 02:25:43;;;;;;;14.67;9.37;;;-1.80;99.90;;;-4.30;100.00;100585.09;4966241;28;100674;-62
2021/01/17 02:28:13;;;;;;;12.63;9.60;;;-1.80;99.90;;;-4.45;100.00;100587.38;4967006;28;100661;-62
2021/01/17 02:30:45;;;;;;;11.57;8.70;;;-1.70;99.90;;;-4.66;100.00;100585.56;4966818;28;100531;-62
2021/01/17 02:33:16;;;;;;;13.50;9.13;;;-1.80;99.90;;;-4.56;100.00;100586.91;4966178;28;101407;-63
2021/01/17 02:35:44;;;;;;;11.10;8.37;;;-1.60;99.90;;;-4.59;100.00;100588.81;4965506;28;100997;-62
2021/01/17 02:38:39;;;;;;;13.00;9.10;;;-1.80;99.90;;;-4.50;100.00;100591.09;4965726;28;100284;-62
2021/01/17 02:41:14;;;;;;;14.40;9.77;;;-1.90;99.90;;;-4.38;100.00;100588.88;4963559;28;100343;-62
2021/01/17 02:43:51;;;;;;;11.00;8.27;;;-1.90;99.90;;;-4.48;100.00;100592.75;4966139;28;101029;-62
2021/01/17 02:46:17;;;;;;;11.33;8.63;;;-1.80;99.90;;;-4.42;100.00;100589.03;4966024;28;101500;-62
2021/01/17 02:48:44;;;;;;;13.10;8.83;;;-1.80;99.90;;;-4.65;100.00;100583.78;4981828;28;100436;-62
2021/01/17 02:51:10;;;;;;;12.57;8.20;;;-1.90;99.90;;;-4.64;100.00;100582.88;4966590;28;100121;-62
2021/01/17 02:53:44;;;;;;;12.83;8.63;;;-0.90;99.90;;;-4.52;100.00;100575.47;4967102;28;101325;-62
2021/01/17 02:56:18;;;;;;;11.43;8.23;;;-2.00;99.90;;;-4.50;100.00;100581.50;4967008;28;100613;-62
2021/01/17 02:58:50;;;;;;;9.50;6.80;;;-1.90;99.90;;;-4.40;100.00;100571.53;4965989;28;100269;-62
2021/01/17 03:01:21;;;;;;;10.80;7.50;;;-2.10;99.90;;;-4.48;100.00;100574.44;4965969;28;100157;-62
2021/01/17 03:03:49;;;;;;;10.83;7.77;;;-2.20;99.90;;;-4.62;100.00;100576.72;4965429;28;101036;-63
2021/01/17 03:06:16;;;;;;;10.77;7.87;;;-2.20;99.90;;;-4.65;100.00;100571.59;4965235;28;100785;-62
2021/01/17 03:08:42;;;;;;;10.13;7.70;;;-2.30;99.90;;;-4.65;100.00;100571.59;4966290;28;100237;-62
2021/01/17 03:11:09;;;;;;;12.00;7.63;;;-2.30;99.90;;;-4.84;100.00;100571.41;4965572;28;100283;-63
2021/01/17 03:13:38;;;;;;;9.10;6.50;;;-2.40;99.90;;;-4.74;100.00;100569.31;4965688;28;100919;-63
2021/01/17 03:16:06;;;;;;;10.17;6.67;;;-1.70;99.90;;;-4.85;100.00;100568.84;4964635;28;100659;-63
2021/01/17 03:18:33;;;;;;;10.83;7.07;;;-2.60;99.90;;;-5.09;100.00;100574.03;4965165;28;100115;-62
2021/01/17 03:20:59;;;;;;;9.73;7.10;;;-2.80;99.90;;;-5.19;100.00;100569.19;4966320;28;100170;-62
2021/01/17 03:23:26;;;;;;;11.37;7.87;;;-2.90;99.90;;;-5.30;100.00;100571.28;4965652;28;101416;-63
2021/01/17 03:25:52;;;;;;;12.17;7.83;;;-2.90;99.90;;;-5.29;100.00;100565.16;4965511;28;100821;-63
2021/01/17 03:28:19;;;;;;;13.07;8.13;;;-3.00;99.90;;;-5.36;100.00;100564.53;4965120;28;99993;-62
2021/01/17 03:30:46;;;;;;;11.30;7.33;;;-3.10;99.90;;;-5.59;100.00;100569.66;4965531;28;100258;-62
2021/01/17 03:33:22;;;;;;;11.93;8.33;;;-3.70;99.90;;;-5.66;100.00;100568.97;4966069;28;101013;-62
2021/01/17 03:35:48;;;;;;;10.27;7.70;;;-3.40;99.90;;;-5.70;100.00;100576.97;4979431;28;101329;-62
2021/01/17 03:38:17;;;;;;;13.67;8.33;;;-3.30;99.90;;;-5.80;100.00;100572.03;4965991;28;100104;-62
2021/01/17 03:40:44;;;;;;;11.30;8.10;;;-3.40;99.90;;;-5.60;100.00;100580.97;4965892;28;100114;-62
2021/01/17 03:43:10;;;;;;;11.70;8.57;;;-3.40;99.90;;;-5.69;100.00;100581.28;4965047;28;100577;-61
2021/01/17 03:45:37;;;;;;;10.30;8.23;;;-3.30;99.90;;;-5.48;100.00;100577.97;4965274;28;101251;-62
2021/01/17 03:48:06;;;;;;;14.53;8.53;;;-3.30;99.90;;;-5.55;100.00;100572.09;4964834;28;100090;-62
2021/01/17 03:50:32;;;;;;;10.37;8.00;;;-3.30;99.90;;;-5.44;100.00;100572.59;4965980;28;100158;-62
2021/01/17 03:52:58;;;;;;;11.87;8.30;;;-3.30;99.90;;;-5.38;100.00;100573.31;4965048;28;101514;-63
2021/01/17 03:55:25;;;;;;;10.60;7.97;;;-3.20;99.90;;;-5.36;100.00;100563.69;4964917;28;100824;-62
2021/01/17 03:57:51;;;;;;;13.03;8.93;;;-3.10;99.90;;;-5.43;100.00;100550.81;4965221;28;101767;-62
2021/01/17 04:00:19;;;;;;;11.00;7.30;;;-3.00;99.90;;;-5.49;100.00;100555.41;4965624;28;100253;-62
2021/01/17 04:02:46;;;;;;;9.13;7.37;;;-2.90;99.90;;;-5.45;100.00;100539.63;4965638;28;100862;-61
2021/01/17 04:05:13;;;;;;;11.13;7.60;;;-4.10;99.90;;;-5.30;100.00;100550.41;4965147;28;101630;-61
2021/01/17 04:07:40;;;;;;;8.53;6.87;;;-2.80;99.90;;;-5.39;100.00;100553.34;4980156;28;100103;-61
2021/01/17 04:10:07;;;;;;;9.43;7.70;;;-1.90;99.90;;;-5.39;100.00;100548.13;4966052;28;100090;-61
2021/01/17 04:12:34;;;;;;;11.33;7.17;;;-2.80;99.90;;;-5.49;100.00;100561.47;4965405;28;100772;-61
2021/01/17 04:15:01;;;;;;;10.60;7.67;;;-2.70;99.90;;;-5.40;100.00;100549.03;4965389;28;100902;-61
2021/01/17 04:17:28;;;;;;;11.13;7.30;;;-2.80;99.90;;;-5.18;100.00;100550.84;4964531;28;100414;-61
2021/01/17 04:19:54;;;;;;;11.13;7.37;;;-2.70;99.90;;;-5.26;100.00;100549.41;4965998;28;100048;-60
2021/01/17 04:22:21;;;;;;;11.13;7.37;;;-2.70;99.90;;;-5.15;100.00;100552.50;4964947;28;101649;-60
2021/01/17 04:24:48;;;;;;;11.23;6.83;;;-2.70;99.90;;;-5.26;100.00;100547.66;4964590;28;100631;-60
2021/01/17 04:27:15;;;;;;;10.70;6.73;;;-2.80;99.90;;;-5.19;100.00;100549.13;4965214;28;100197;-61
2021/01/17 04:29:42;;;;;;;14.00;7.83;;;-2.60;99.90;;;-5.22;100.00;100538.84;4965027;28;100080;-61
2021/01/17 04:32:08;;;;;;;11.63;7.23;;;-2.60;99.90;;;-5.14;100.00;100536.81;4979074;28;103884;-61
2021/01/17 04:34:35;;;;;;;10.60;7.40;;;-2.70;99.90;;;-5.30;100.00;100546.06;4965497;28;100227;-60
2021/01/17 04:37:01;;;;;;;9.30;6.67;;;-2.80;99.90;;;-5.33;100.00;100548.78;4964249;28;100071;-59
2021/01/17 04:39:29;;;;;;;9.77;7.00;;;-2.80;99.90;;;-5.31;100.00;100554.78;4964919;28;100241;-61
2021/01/17 04:41:58;;;;;;;10.97;7.93;;;-2.90;99.90;;;-5.34;100.00;100556.66;4964034;28;101304;-61
2021/01/17 04:44:33;;;;;;;9.73;7.63;;;-2.10;99.90;;;-5.35;100.00;100554.94;4964289;28;100200;-62
2021/01/17 04:47:04;;;;;;;9.87;7.70;;;-2.80;99.90;;;-5.37;100.00;100555.00;4964205;28;100091;-61
2021/01/17 04:49:33;;;;;;;10.70;7.23;;;-2.80;99.90;;;-5.40;100.00;100564.66;4965052;28;99990;-62
2021/01/17 04:52:02;;;;;;;12.17;6.90;;;-2.80;99.90;;;-5.39;100.00;100569.00;4963826;28;100663;-61
2021/01/17 04:54:30;;;;;;;9.50;6.87;;;-2.80;99.90;;;-5.25;100.00;100570.22;4964056;28;101412;-60
2021/01/17 04:57:07;;;;;;;9.47;7.23;;;-3.90;99.90;;;-5.27;100.00;100569.44;4964762;28;100277;-61
2021/01/17 04:59:37;;;;;;;11.77;7.50;;;-1.90;99.90;;;-5.23;100.00;100573.66;4964093;28;100279;-62
2021/01/17 05:02:24;;;;;;;10.63;7.60;;;-2.10;99.90;;;-5.36;100.00;100579.31;4964173;28;100671;-62
2021/01/17 05:05:20;;;;;;;11.40;7.37;;;-2.70;99.90;;;-5.20;100.00;100573.56;4963978;28;101061;-62
2021/01/17 05:08:31;;;;;;;10.63;7.43;;;-2.70;99.90;;;-5.22;100.00;100577.97;4959883;28;100097;-61
2021/01/17 05:11:02;;;;;;;10.00;7.07;;;-2.70;99.90;;;-5.38;100.00;100578.53;4964418;28;100363;-61
2021/01/17 05:13:47;;;;;;;11.87;8.10;;;-2.60;99.90;;;-5.26;100.00;100571.13;4964340;28;101039;-61
2021/01/17 05:16:15;;;;;;;8.73;7.30;;;-2.70;99.90;;;-5.44;100.00;100576.97;4978326;28;102402;-62
2021/01/17 05:18:48;;;;;;;10.77;7.77;;;-2.60;99.90;;;-5.43;100.00;100574.28;4964381;28;100098;-61
2021/01/17 05:21:20;;;;;;;9.00;7.50;;;-2.50;99.90;;;-5.57;100.00;100567.84;4963844;28;100258;-62
2021/01/17 05:23:48;;;;;;;10.47;7.63;;;-2.50;99.90;;;-5.44;100.00;100574.38;4943823;28;101110;-61
2021/01/17 05:26:15;;;;;;;10.03;7.93;;;-3.00;99.90;;;-5.29;100.00;100571.22;4944313;28;100659;-61
2021/01/17 05:28:42;;;;;;;10.77;8.17;;;-1.60;99.90;;;-5.26;100.00;100575.50;4945214;28;100340;-62
2021/01/17 05:31:08;;;;;;;10.67;7.97;;;-2.40;99.90;;;-5.32;100.00;100584.41;4944746;28;100255;-60
2021/01/17 05:33:35;;;;;;;9.50;7.30;;;-2.40;99.90;;;-5.43;100.00;100589.94;4944036;28;101027;-61
2021/01/17 05:36:01;;;;;;;12.60;8.73;;;-2.50;99.90;;;-5.51;100.00;100593.72;4944427;28;100602;-60
2021/01/17 05:38:28;;;;;;;14.10;9.37;;;-2.40;99.90;;;-5.41;100.00;100597.72;4944791;28;99945;-61
2021/01/17 05:40:54;;;;;;;12.10;7.50;;;-2.60;99.90;;;-5.46;100.00;100602.25;4944259;28;100173;-61
2021/01/17 05:43:22;;;;;;;11.30;8.67;;;-2.60;99.90;;;-5.49;100.00;100605.81;4944533;28;100827;-62
2021/01/17 05:45:54;;;;;;;12.60;8.37;;;-2.40;99.90;;;-5.52;100.00;100605.03;4944998;28;100699;-62
2021/01/17 05:48:20;;;;;;;13.30;8.90;;;-2.50;99.90;;;-5.43;100.00;100602.13;4945109;28;100232;-62
2021/01/17 05:50:47;;;;;;;12.20;8.97;;;-2.50;99.90;;;-5.23;100.00;100611.91;4956693;28;100250;-62
2021/01/17 05:53:14;;;;;;;10.67;7.50;;;-1.50;99.90;;;-5.03;100.00;100606.03;4978575;28;102881;-61
2021/01/17 05:55:43;;;;;;;12.57;8.63;;;-2.50;99.90;;;-4.95;100.00;100602.25;4963698;28;101574;-61
2021/01/17 05:58:31;;;;;;;13.03;9.10;;;-2.40;99.90;;;-4.88;100.00;100605.50;4963641;28;100016;-60
2021/01/17 06:00:59;;;;;;;13.33;9.10;;;-2.40;99.90;;;-5.02;100.00;100602.50;4963704;28;101246;-60
2021/01/17 06:03:30;;;;;;;15.13;8.47;;;-2.40;99.90;;;-5.03;100.00;100603.41;4964040;28;100601;-61
2021/01/17 06:06:01;;;;;;;11.33;8.43;;;-2.20;99.90;;;-4.90;100.00;100602.94;4964070;28;101069;-61
2021/01/17 06:08:29;;;;;;;13.73;9.23;;;-2.20;99.90;;;-5.07;100.00;100605.28;4963763;28;100343;-60
2021/01/17 06:11:07;;;;;;;13.93;8.70;;;-2.20;99.90;;;-4.63;100.00;100608.09;4964139;28;100123;-61
2021/01/17 06:13:37;;;;;;;11.07;8.43;;;-2.20;99.90;;;-4.89;100.00;100614.22;4967974;28;100937;-61
2021/01/17 06:16:32;;;;;;;12.00;8.93;;;-2.10;99.90;;;-4.97;100.00;100616.25;4967554;28;100733;-61
2021/01/17 06:19:01;;;;;;;13.03;8.93;;;-2.10;99.90;;;-4.87;100.00;100610.66;4967215;28;99976;-61
2021/01/17 06:21:29;;;;;;;13.13;9.23;;;-2.10;99.90;;;-4.87;100.00;100615.03;4966836;28;100286;-61
2021/01/17 06:23:58;;;;;;;12.10;8.90;;;-2.20;99.90;;;-4.82;100.00;100613.13;4966772;28;100724;-61
2021/01/17 06:26:27;;;;;;;12.40;9.37;;;-2.10;99.90;;;-4.91;100.00;100619.50;4966738;28;100959;-61
2021/01/17 06:28:55;;;;;;;13.87;9.27;;;-2.10;99.90;;;-4.88;100.00;100616.78;4967733;28;100272;-62
2021/01/17 06:31:27;;;;;;;12.53;9.63;;;-2.10;99.90;;;-4.67;100.00;100620.41;4966893;28;100081;-61
2021/01/17 06:34:04;;;;;;;13.87;9.73;;;-2.00;99.90;;;-4.68;100.00;100623.06;4967063;28;100926;-61
2021/01/17 06:36:31;;;;;;;14.43;10.97;;;-2.00;99.90;;;-4.71;100.00;100626.66;4965925;28;100589;-62
2021/01/17 06:38:59;;;;;;;14.93;11.40;;;-2.00;99.90;;;-4.60;100.00;100624.53;4967256;28;99992;-61
2021/01/17 06:41:38;;;;;;;15.07;11.83;;;-3.20;99.90;;;-4.76;100.00;100631.19;4967637;28;100572;-61
2021/01/17 06:44:12;;;;;;;17.57;12.70;;;-2.00;99.90;;;-4.64;100.00;100629.88;4967126;28;100973;-61
2021/01/17 06:46:41;;;;;;;16.40;11.20;;;-1.90;99.90;;;-4.64;100.00;100635.97;4966426;28;100594;-61
2021/01/17 06:49:19;;;;;;;15.87;11.67;;;-1.90;99.90;;;-4.59;100.00;100635.81;4966037;28;100214;-61
2021/01/17 06:51:47;;;;;;;16.23;12.17;;;-1.90;99.90;;;-4.51;100.00;100634.63;4967067;28;100370;-61
2021/01/17 06:54:19;;;;;;;17.03;11.73;;;-1.80;99.90;;;-4.57;100.00;100631.38;4966193;28;100672;-60
2021/01/17 06:56:47;;;;;;;15.43;11.63;;;-1.80;99.90;;;-4.59;100.00;100636.66;4966061;28;101310;-64
2021/01/17 06:59:30;;;;;;;18.93;12.67;;;-1.80;99.90;;;-4.50;100.00;100640.69;4966354;28;100446;-61
2021/01/17 07:02:31;;;;;;;17.80;12.50;;;-1.90;99.90;;;-4.52;100.00;100637.28;4967215;28;100356;-61
2021/01/17 07:05:32;;;;;;;21.13;14.47;;;-1.80;99.90;;;-4.47;100.00;100636.22;4964355;28;100434;-62
2021/01/17 07:08:18;;;;;;;21.30;14.20;;;-1.80;99.90;;;-4.42;100.00;100636.91;4967568;28;100148;-62
2021/01/17 07:10:50;;;;;;;20.33;14.63;;;-1.90;99.90;;;-4.35;100.00;100637.53;4966518;28;100183;-63
2021/01/17 07:13:21;;;;;;;22.27;14.90;;;-1.90;99.90;;;-4.50;100.00;100651.16;4965847;28;100284;-61
2021/01/17 07:15:50;;;;;;;17.33;12.87;;;-1.90;99.90;;;-4.49;100.00;100643.25;4965691;28;100810;-62
2021/01/17 07:18:18;;;;;;;14.77;11.63;;;-1.60;99.90;;;-4.67;100.00;100640.44;4965693;28;100863;-61
2021/01/17 07:20:46;;;;;;;15.37;11.83;;;-1.70;99.90;;;-4.66;100.00;100637.78;4966277;28;100236;-60
2021/01/17 07:23:14;;;;;;;16.97;11.30;;;-1.70;99.90;;;-4.52;100.00;100645.13;4965071;28;100087;-62
2021/01/17 07:25:43;;;;;;;13.97;10.60;;;-1.60;99.90;;;-4.65;100.00;100636.00;4965460;28;100916;-62
2021/01/17 07:28:12;;;;;;;12.97;10.07;;;-1.50;99.90;;;-4.68;100.00;100643.94;4966364;28;100418;-62
2021/01/17 07:30:51;;;;;;;19.30;11.50;;;-1.60;99.90;;;-4.77;100.00;100651.22;4966533;28;100306;-62
2021/01/17 07:33:24;;;;;;;20.57;15.63;;;-1.60;99.90;;;-4.84;100.00;100657.56;4966797;28;100440;-60
2021/01/17 07:35:51;;;;;;;20.80;14.90;;;-1.60;99.90;;;-4.82;100.00;100660.94;4965705;28;102065;-63
2021/01/17 07:38:20;;;;;;;18.43;12.60;;;-1.60;99.90;;;-4.85;100.00;100660.22;4965658;28;100904;-62
2021/01/17 07:40:53;;;;;;;18.17;12.23;;;-1.60;99.90;;;-4.86;100.00;100654.13;4965466;28;100193;-62
2021/01/17 07:43:23;;;;;;;15.97;10.70;;;-1.60;99.90;;;-4.70;100.00;100652.69;4965529;28;100122;-62
2021/01/17 07:45:51;;;;;;;15.30;11.37;;;-1.80;99.90;;;-4.62;100.00;100654.19;4965073;28;101473;-62
2021/01/17 07:48:19;;;;;;;15.17;10.70;;;-1.70;99.90;;;-4.58;100.00;100647.97;4965685;28;100696;-62
2021/01/17 07:50:48;;;;;;;13.77;10.27;;;-1.70;99.90;;;-4.73;100.00;100659.78;4966260;28;100486;-62
2021/01/17 07:53:32;;;;;;;17.17;12.37;;;-1.80;99.90;;;-4.47;100.00;100651.06;4965770;28;100277;-62
2021/01/17 07:56:07;;;;;;;14.30;10.13;;;-1.80;99.90;;;-4.12;100.00;100658.47;4965669;28;100769;-61
2021/01/17 07:58:38;;;;;;;17.07;11.83;;;-1.50;99.90;;;-4.30;100.00;100663.47;4946095;28;100389;-61
2021/01/17 08:01:44;;;;;;;14.70;9.80;;;-1.60;99.90;;;-4.22;100.00;100677.16;4953253;28;100091;-62
2021/01/17 08:04:28;;;;;;;12.87;9.90;;;-1.60;99.90;;;-4.27;100.00;100668.59;4966226;28;100165;-61
2021/01/17 08:07:01;;;;;;;12.80;10.23;;;-1.60;99.90;;;-4.47;100.00;100664.97;4965063;28;101073;-62
2021/01/17 08:09:48;;;;;;;12.77;9.40;;;-1.50;99.90;;;-4.14;100.00;100667.25;4965879;28;100698;-62
2021/01/17 08:12:39;;;;;;;14.70;10.13;;;-1.40;99.90;;;-4.43;100.00;100671.75;4965181;28;100261;-62
2021/01/17 08:15:30;;;;;;;13.73;10.43;;;-1.40;99.90;;;-4.32;100.00;100670.50;4965673;28;100022;-62
2021/01/17 08:18:04;;;;;;;11.57;8.83;;;-1.40;99.90;;;-4.08;100.00;100672.28;4965360;28;101396;-62
2021/01/17 08:20:32;;;;;;;13.73;9.40;;;-1.30;99.90;;;-3.86;100.00;100669.69;4958874;28;100779;-62
2021/01/17 08:23:11;;;;;;;16.40;11.27;;;-1.30;99.90;;;-4.10;100.00;100674.94;4959509;28;100495;-62
2021/01/17 08:25:54;;;;;;;14.07;11.13;;;-1.30;99.90;;;-3.96;100.00;100670.97;4963300;28;100235;-62
2021/01/17 08:29:00;;;;;;;16.30;12.37;;;-1.10;99.90;;;-4.11;100.00;100675.00;4962661;28;101145;-63
2021/01/17 08:31:40;;;;;;;13.93;10.83;;;-1.10;99.90;;;-4.06;100.00;100679.13;4958508;28;101020;-60
2021/01/17 08:34:14;;;;;;;15.13;12.93;;;-1.10;99.90;;;-4.01;100.00;100677.19;4957816;28;100391;-61
2021/01/17 08:36:42;;;;;;;14.07;10.40;;;-1.10;99.90;;;-3.79;100.00;100676.38;4960486;28;100202;-62
2021/01/17 08:39:10;;;;;;;14.97;10.37;;;-1.10;99.90;;;-3.86;100.00;100677.53;4961221;28;102188;-62
2021/01/17 08:41:40;;;;;;;15.03;11.47;;;-1.10;99.90;;;-3.91;100.00;100680.31;4961933;28;100595;-61
2021/01/17 08:44:15;;;;;;;13.13;10.40;;;-1.00;99.90;;;-3.82;100.00;100674.72;4961974;28;100300;-63
2021/01/17 08:46:43;;;;;;;16.23;10.93;;;-0.90;99.90;;;-3.96;100.00;100684.88;4962160;28;100197;-62
2021/01/17 08:49:09;;;;;;;14.70;10.60;;;-1.00;99.90;;;-4.07;100.00;100680.03;4961562;28;100739;-62
2021/01/17 08:51:37;;;;;;;18.17;12.63;;;-0.90;99.90;;;-3.84;100.00;100683.56;4961314;28;100509;-61
2021/01/17 08:54:28;;;;;;;16.70;12.43;;;-0.90;99.90;;;-3.94;100.00;100690.88;4960722;28;100106;-61
2021/01/17 08:56:55;;;;;;;18.00;13.70;;;-0.10;99.90;;;-3.82;100.00;100679.97;4959873;28;100082;-63
2021/01/17 08:59:37;;;;;;;21.07;15.23;;;-1.00;99.90;;;-3.81;100.00;100683.44;4960627;28;100596;-61
2021/01/17 09:02:04;;;;;;;18.83;14.33;;;-0.80;99.90;;;-3.68;100.00;100687.28;4961099;28;100560;-61
2021/01/17 09:04:32;;;;;;;15.67;11.93;;;-0.70;99.90;;;-3.85;100.00;100689.72;4961698;28;100352;-62
2021/01/17 09:06:59;;;;;;;15.67;11.07;;;-0.90;99.90;;;-3.68;100.00;100690.75;4961132;28;100180;-62
2021/01/17 09:09:26;;;;;;;12.97;9.43;;;-0.80;99.90;;;-3.69;100.00;100696.03;4960884;28;101518;-61
2021/01/17 09:11:53;;;;;;;11.23;8.40;;;-0.70;99.90;;;-3.89;100.00;100702.03;4960418;28;100780;-62
2021/01/17 09:14:27;;;;;;;13.03;8.00;;;-0.70;99.90;;;-3.60;100.00;100700.09;4961019;28;100014;-62
2021/01/17 09:16:57;;;;;;;12.37;8.40;;;-0.60;99.90;;;-3.81;100.00;100702.59;4962253;27;99915;-63
2021/01/17 09:19:28;;;;;;;10.80;7.60;;;-0.70;99.90;;;-3.68;100.00;100703.81;4961574;28;100154;-62
2021/01/17 09:21:56;;;;;;;10.77;7.40;;;-0.70;99.90;;;-3.56;100.00;100702.50;4959949;28;101288;-62
2021/01/17 09:24:26;;;;;;;13.20;8.60;;;-0.70;99.90;;;-3.47;100.00;100706.56;4961152;28;100045;-62
2021/01/17 09:26:54;;;;;;;12.13;8.53;;;-0.70;99.90;;;-3.40;100.00;100701.00;4959221;28;100350;-62
2021/01/17 09:29:33;;;;;;;12.87;8.30;;;-0.60;99.90;;;-3.55;100.00;100708.59;4960585;27;100143;-61
2021/01/17 09:32:07;;;;;;;12.20;9.30;;;-0.60;99.90;;;-3.35;100.00;100709.53;4960894;28;101179;-62
2021/01/17 09:34:37;;;;;;;12.37;8.67;;;-0.40;99.90;;;-3.26;100.00;100709.16;4961482;28;100257;-61
2021/01/17 09:37:09;;;;;;;13.00;9.43;;;-0.40;99.90;;;-3.34;100.00;100716.44;4960139;28;99898;-62
2021/01/17 09:39:40;;;;;;;15.43;9.83;;;-0.40;99.90;;;-3.31;100.00;100710.25;4960284;28;101653;-63
2021/01/17 09:42:10;;;;;;;14.80;10.20;;;-0.50;99.90;;;-3.24;100.00;100714.34;4961469;28;100631;-63
2021/01/17 09:44:37;;;;;;;15.83;10.27;;;-0.30;99.90;;;-3.57;100.00;100713.88;4961110;27;100305;-62
2021/01/17 09:47:13;;;;;;;14.60;9.47;;;-0.30;99.90;;;-3.43;100.00;100716.81;4965047;28;100324;-63
2021/01/17 09:49:40;;;;;;;14.23;10.33;;;-0.30;99.90;;;-3.36;100.00;100714.84;4964580;28;101341;-62
2021/01/17 09:52:14;;;;;;;20.60;13.77;;;-0.40;99.90;;;-3.09;100.00;100718.13;4979142;27;101983;-63
2021/01/17 09:54:42;;;;;;;18.00;12.17;;;-0.40;99.90;;;-3.06;100.00;100721.44;4964506;28;100043;-64
2021/01/17 09:57:17;;;;;;;18.03;12.10;;;-0.30;99.90;;;-2.98;100.00;100715.94;4965078;28;100274;-63
2021/01/17 09:59:44;;;;;;;20.93;13.67;;;-0.30;99.90;;;-2.84;100.00;100717.97;4963678;28;101389;-61
2021/01/17 10:02:11;;;;;;;20.80;12.73;;;-0.30;99.90;;;-2.95;100.00;100719.25;4964162;28;101352;-63
2021/01/17 10:04:40;;;;;;;13.07;9.60;;;-0.10;99.90;;;-3.12;100.00;100726.09;4965319;28;100316;-64
2021/01/17 10:07:15;;;;;;;17.80;11.40;;;-0.10;99.90;;;-2.86;100.00;100722.44;4965369;28;100245;-63
2021/01/17 10:09:43;;;;;;;19.60;13.63;;;-0.10;99.90;;;-2.74;100.00;100724.53;4963134;28;101135;-61